Time;durP1;ratioP1;P1;durP2;ratioP2;P2;SDS_P1;SDS_P2;PMS_P1;PMS_P2;Temp;Humidity;BMP_temperature;BMP_pressure;BME280_temperature;BME280_humidity;BME280_pressure;Samples;Min_cycle;Max_cycle;Signal;HPM_P1;HPM_P2
2022/08/10 00:00:22;;;;;;;9.00;4.50;;;19.50;82.10;;;;;;5051317;28;20434;-48
2022/08/10 00:02:50;;;;;;;7.50;4.17;;;19.60;82.50;;;;;;5051635;28;20498;-48
2022/08/10 00:05:17;;;;;;;5.83;4.00;;;19.60;82.70;;;;;;5051570;28;20453;-48
2022/08/10 00:07:44;;;;;;;5.20;4.10;;;19.50;82.90;;;;;;5050604;28;20806;-48
2022/08/10 00:10:13;;;;;;;4.13;3.07;;;19.10;82.60;;;;;;5051382;28;20434;-48
2022/08/10 00:12:40;;;;;;;5.83;3.80;;;19.60;83.50;;;;;;5051983;28;20961;-48
2022/08/10 00:15:08;;;;;;;6.10;3.63;;;19.40;83.80;;;;;;5051456;28;20460;-49
2022/08/10 00:17:36;;;;;;;4.77;3.43;;;19.40;83.90;;;;;;5051399;28;20577;-48
2022/08/10 00:20:05;;;;;;;7.10;4.37;;;19.70;84.50;;;;;;5051002;28;20532;-48
2022/08/10 00:22:32;;;;;;;6.57;3.93;;;19.30;84.50;;;;;;5051525;28;20437;-48
2022/08/10 00:24:58;;;;;;;7.50;3.87;;;19.30;84.70;;;;;;5049920;28;20515;-49
2022/08/10 00:27:25;;;;;;;8.20;4.70;;;19.30;85.00;;;;;;5051462;28;20441;-48
2022/08/10 00:29:52;;;;;;;6.23;5.10;;;19.20;85.60;;;;;;5049932;28;20957;-48
2022/08/10 00:32:19;;;;;;;5.80;4.40;;;19.20;85.70;;;;;;5051674;28;20437;-49
2022/08/10 00:34:46;;;;;;;6.80;4.50;;;19.10;85.70;;;;;;5051387;28;20460;-49
2022/08/10 00:37:16;;;;;;;6.60;3.83;;;19.20;86.30;;;;;;5051340;28;20473;-49
2022/08/10 00:39:42;;;;;;;7.00;4.07;;;19.20;86.50;;;;;;5050949;28;20433;-48
2022/08/10 00:42:11;;;;;;;4.93;3.80;;;19.10;86.60;;;;;;5051514;28;20441;-49
2022/08/10 00:44:39;;;;;;;7.47;4.20;;;19.00;86.90;;;;;;5051262;28;20519;-48
2022/08/10 00:47:06;;;;;;;5.60;4.27;;;19.00;87.10;;;;;;5051432;28;20438;-48
2022/08/10 00:49:33;;;;;;;5.77;3.90;;;19.00;87.20;;;;;;5050897;28;20424;-48
2022/08/10 00:52:00;;;;;;;4.93;3.90;;;19.30;88.10;;;;;;5051247;28;20452;-48
2022/08/10 00:54:28;;;;;;;5.63;5.07;;;18.90;87.60;;;;;;5051162;28;20452;-48
2022/08/10 00:56:55;;;;;;;6.27;4.17;;;18.90;87.70;;;;;;5051237;28;20817;-49
2022/08/10 00:59:22;;;;;;;5.70;4.50;;;18.90;88.00;;;;;;5051108;28;21027;-49
2022/08/10 01:01:48;;;;;;;9.03;4.70;;;18.90;88.10;;;;;;5053145;28;20436;-48
2022/08/10 01:04:15;;;;;;;5.17;4.50;;;18.90;88.60;;;;;;5054692;28;20463;-49
2022/08/10 01:06:51;;;;;;;10.47;4.07;;;19.00;88.80;;;;;;5054589;28;20433;-48
2022/08/10 01:09:24;;;;;;;8.93;3.80;;;18.90;88.90;;;;;;5054396;28;20439;-48
2022/08/10 01:12:00;;;;;;;4.93;4.00;;;18.80;89.40;;;;;;5054680;28;20973;-49
2022/08/10 01:14:34;;;;;;;6.90;4.00;;;18.80;89.70;;;;;;5054578;28;20479;-49
2022/08/10 01:17:06;;;;;;;7.33;4.43;;;18.70;89.60;;;;;;5054644;28;20436;-48
2022/08/10 01:19:50;;;;;;;8.80;4.40;;;18.70;90.00;;;;;;5054271;28;20483;-49
2022/08/10 01:22:49;;;;;;;5.10;3.97;;;18.70;90.10;;;;;;5054570;28;20425;-48
2022/08/10 01:25:34;;;;;;;6.10;4.00;;;18.70;90.20;;;;;;5054571;28;20470;-49
2022/08/10 01:28:08;;;;;;;9.10;4.50;;;18.60;90.40;;;;;;5054541;28;20447;-49
2022/08/10 01:30:38;;;;;;;5.93;4.30;;;18.60;90.50;;;;;;5053882;28;20435;-49
2022/08/10 01:33:09;;;;;;;9.40;4.27;;;18.60;90.70;;;;;;5054440;28;21022;-48
2022/08/10 01:35:41;;;;;;;11.13;5.43;;;18.80;90.80;;;;;;5054036;28;20454;-48
2022/08/10 01:38:13;;;;;;;10.40;5.57;;;18.50;91.00;;;;;;5054104;28;20483;-49
2022/08/10 01:40:44;;;;;;;7.90;5.53;;;18.50;91.10;;;;;;5053894;28;20436;-48
2022/08/10 01:43:14;;;;;;;6.07;4.53;;;18.50;91.30;;;;;;5054169;28;20468;-48
2022/08/10 01:45:45;;;;;;;4.43;3.60;;;18.40;91.40;;;;;;5054003;28;20464;-49
2022/08/10 01:48:29;;;;;;;5.67;3.90;;;18.30;91.60;;;;;;5053920;28;20511;-48
2022/08/10 01:51:01;;;;;;;6.30;4.00;;;18.40;91.80;;;;;;5054176;28;20814;-48
2022/08/10 01:53:36;;;;;;;4.80;3.90;;;18.30;91.90;;;;;;5053895;28;20428;-49
2022/08/10 01:56:04;;;;;;;7.90;4.67;;;18.30;92.10;;;;;;5053962;28;20443;-49
2022/08/10 01:58:33;;;;;;;6.40;4.60;;;18.20;92.10;;;;;;5053596;28;20857;-48
2022/08/10 02:01:02;;;;;;;9.23;4.60;;;18.20;92.30;;;;;;5053662;28;20434;-48
2022/08/10 02:03:31;;;;;;;4.90;3.87;;;18.10;92.30;;;;;;5053659;28;20444;-48
2022/08/10 02:05:58;;;;;;;10.03;4.33;;;18.10;92.40;;;;;;5053657;28;20437;-48
2022/08/10 02:08:28;;;;;;;6.03;4.17;;;18.20;92.70;;;;;;5053400;28;20441;-49
2022/08/10 02:10:57;;;;;;;6.17;4.43;;;18.10;92.70;;;;;;5053647;28;20442;-48
2022/08/10 02:13:26;;;;;;;12.37;4.77;;;18.10;92.90;;;;;;5053135;28;20433;-48
2022/08/10 02:15:54;;;;;;;6.73;4.60;;;18.50;93.20;;;;;;5053499;28;20945;-48
2022/08/10 02:18:23;;;;;;;6.13;4.30;;;18.10;93.10;;;;;;5053421;28;20530;-48
2022/08/10 02:20:52;;;;;;;7.97;4.63;;;18.10;93.20;;;;;;5053156;28;20438;-48
2022/08/10 02:23:27;;;;;;;6.80;4.60;;;18.40;93.70;;;;;;5053415;28;20432;-48
2022/08/10 02:25:56;;;;;;;7.13;4.60;;;18.00;93.80;;;;;;5053318;28;20942;-48
2022/08/10 02:28:25;;;;;;;9.73;5.07;;;17.90;93.70;;;;;;5053033;28;20428;-48
2022/08/10 02:30:55;;;;;;;6.60;5.30;;;18.20;94.00;;;;;;5053298;28;20431;-48
2022/08/10 02:33:26;;;;;;;5.07;4.57;;;17.60;93.90;;;;;;5053045;28;20487;-48
2022/08/10 02:35:54;;;;;;;5.27;4.40;;;18.00;94.30;;;;;;5051823;28;20463;-48
2022/08/10 02:38:27;;;;;;;5.43;4.70;;;18.20;94.50;;;;;;5052839;28;20483;-48
2022/08/10 02:40:58;;;;;;;8.90;4.80;;;17.90;94.70;;;;;;5053053;28;20427;-48
2022/08/10 02:43:28;;;;;;;5.23;4.03;;;17.90;94.80;;;;;;5052828;28;20433;-48
2022/08/10 02:45:58;;;;;;;9.73;4.97;;;17.80;94.90;;;;;;5052839;28;20842;-48
2022/08/10 02:48:34;;;;;;;6.90;5.03;;;17.80;94.90;;;;;;5052561;28;20401;-48
2022/08/10 02:51:06;;;;;;;8.70;4.90;;;17.80;95.10;;;;;;5052754;28;20431;-48
2022/08/10 02:53:36;;;;;;;12.30;4.93;;;17.80;95.20;;;;;;5052661;28;20436;-48
2022/08/10 02:56:09;;;;;;;7.10;4.60;;;17.80;95.30;;;;;;5052662;28;20958;-48
2022/08/10 02:58:40;;;;;;;6.10;5.00;;;17.90;95.60;;;;;;5052216;28;20475;-48
2022/08/10 03:01:11;;;;;;;5.80;5.00;;;17.70;95.50;;;;;;5052515;28;20445;-48
2022/08/10 03:03:45;;;;;;;10.00;6.07;;;17.50;95.50;;;;;;5051070;28;20475;-48
2022/08/10 03:06:15;;;;;;;6.40;5.40;;;17.90;96.00;;;;;;5052513;28;20445;-48
2022/08/10 03:08:43;;;;;;;8.53;6.30;;;17.70;95.90;;;;;;5052222;28;20431;-48
2022/08/10 03:11:15;;;;;;;12.17;6.57;;;17.60;96.10;;;;;;5052421;28;20431;-48
2022/08/10 03:13:44;;;;;;;10.53;6.73;;;17.60;96.30;;;;;;5052176;28;20451;-48
2022/08/10 03:16:11;;;;;;;11.20;5.87;;;17.30;96.40;;;;;;5052517;28;20439;-48
2022/08/10 03:18:40;;;;;;;9.70;6.53;;;17.60;96.60;;;;;;5051851;28;20466;-48
2022/08/10 03:21:08;;;;;;;6.90;6.20;;;18.00;96.90;;;;;;5052311;28;20433;-49
2022/08/10 03:23:36;;;;;;;10.53;6.37;;;17.50;96.70;;;;;;5051627;28;20497;-48
2022/08/10 03:26:03;;;;;;;8.10;6.60;;;17.90;97.10;;;;;;5052013;28;20437;-48
2022/08/10 03:28:33;;;;;;;12.23;6.50;;;17.50;97.00;;;;;;5051658;28;20434;-48
2022/08/10 03:31:00;;;;;;;7.37;6.40;;;17.50;97.20;;;;;;5051991;28;20427;-48
2022/08/10 03:33:32;;;;;;;7.27;6.57;;;17.50;97.20;;;;;;5051920;28;20530;-48
2022/08/10 03:36:00;;;;;;;8.60;5.60;;;17.40;97.30;;;;;;5051888;28;20438;-48
2022/08/10 03:38:27;;;;;;;7.80;5.10;;;17.50;97.50;;;;;;5051495;28;20876;-48
2022/08/10 03:40:56;;;;;;;10.47;5.90;;;17.50;97.70;;;;;;5051872;28;20439;-49
2022/08/10 03:43:26;;;;;;;8.23;6.00;;;17.50;97.80;;;;;;5051832;28;20449;-48
2022/08/10 03:45:55;;;;;;;10.27;5.60;;;17.50;97.90;;;;;;5051802;28;20531;-48
2022/08/10 03:48:23;;;;;;;7.67;5.53;;;17.50;97.90;;;;;;5051562;28;20442;-48
2022/08/10 03:50:51;;;;;;;6.90;6.20;;;17.50;98.10;;;;;;5051667;28;20431;-48
2022/08/10 03:53:20;;;;;;;7.50;6.03;;;17.80;98.40;;;;;;5051684;28;20919;-48
2022/08/10 03:55:47;;;;;;;8.20;5.47;;;17.40;98.40;;;;;;5051424;28;20473;-48
2022/08/10 03:58:14;;;;;;;7.50;6.30;;;17.40;98.40;;;;;;5051574;28;20431;-48
2022/08/10 04:00:41;;;;;;;8.97;6.20;;;17.20;98.40;;;;;;5051416;28;20966;-48
2022/08/10 04:03:08;;;;;;;8.50;6.97;;;17.50;98.60;;;;;;5051758;28;20439;-48
2022/08/10 04:05:36;;;;;;;7.97;5.57;;;17.50;98.70;;;;;;5051605;28;20458;-48
2022/08/10 04:08:03;;;;;;;8.40;6.40;;;17.50;98.80;;;;;;5050276;28;20458;-48
2022/08/10 04:10:31;;;;;;;7.80;6.83;;;17.40;98.80;;;;;;5051299;28;20431;-48
2022/08/10 04:12:57;;;;;;;7.13;6.43;;;17.50;98.90;;;;;;5051898;28;20440;-48
2022/08/10 04:15:24;;;;;;;11.47;7.00;;;17.10;98.90;;;;;;5075167;22;20494;-46
2022/08/10 04:17:51;;;;;;;8.83;7.23;;;17.30;99.20;;;;;;5051554;28;20440;-47
2022/08/10 04:20:25;;;;;;;11.53;7.20;;;17.40;99.40;;;;;;5051359;28;21043;-46
2022/08/10 04:22:55;;;;;;;9.97;7.20;;;17.30;99.60;;;;;;5051846;28;20790;-46
2022/08/10 04:25:24;;;;;;;9.93;7.47;;;17.10;99.50;;;;;;5051301;28;20458;-47
2022/08/10 04:27:53;;;;;;;12.80;6.90;;;17.40;99.60;;;;;;5051377;28;20947;-47
2022/08/10 04:30:20;;;;;;;14.30;8.00;;;17.30;99.60;;;;;;5051255;28;20427;-48
2022/08/10 04:32:52;;;;;;;8.57;7.33;;;17.40;99.80;;;;;;5051439;28;20438;-47
2022/08/10 04:35:20;;;;;;;8.10;6.50;;;17.40;99.90;;;;;;5051402;28;20952;-46
2022/08/10 04:37:49;;;;;;;7.83;6.57;;;17.20;99.90;;;;;;5055468;28;20529;-45
2022/08/10 04:40:17;;;;;;;9.80;6.80;;;17.70;99.90;;;;;;5054869;28;20478;-47
2022/08/10 04:42:44;;;;;;;11.07;6.57;;;17.50;99.90;;;;;;5055131;28;20442;-47
2022/08/10 04:45:14;;;;;;;9.43;8.43;;;17.50;99.90;;;;;;5055086;28;20938;-46
2022/08/10 04:47:41;;;;;;;9.00;6.80;;;17.60;99.90;;;;;;5055182;28;20427;-47
2022/08/10 04:50:08;;;;;;;12.07;7.30;;;17.60;99.90;;;;;;5054633;28;20460;-48
2022/08/10 04:52:35;;;;;;;8.67;7.47;;;17.80;99.90;;;;;;5054908;28;20439;-46
2022/08/10 04:55:01;;;;;;;10.40;7.37;;;18.00;99.90;;;;;;5054796;28;20462;-45
2022/08/10 04:57:28;;;;;;;9.33;6.87;;;17.90;99.90;;;;;;5054769;28;20836;-47
2022/08/10 04:59:55;;;;;;;11.30;7.47;;;18.00;99.90;;;;;;5054520;28;20497;-46
2022/08/10 05:02:23;;;;;;;7.37;6.43;;;17.80;99.80;;;;;;5054707;28;20534;-46
2022/08/10 05:04:49;;;;;;;8.80;6.90;;;18.10;99.80;;;;;;5054856;28;20463;-47
2022/08/10 05:07:16;;;;;;;6.90;5.57;;;17.80;99.50;;;;;;5054570;28;20425;-47
2022/08/10 05:09:44;;;;;;;9.70;6.77;;;18.30;99.60;;;;;;5054374;28;20917;-46
2022/08/10 05:12:10;;;;;;;8.00;6.60;;;18.50;99.40;;;;;;5054634;28;20798;-47
2022/08/10 05:14:37;;;;;;;21.80;7.63;;;18.50;99.20;;;;;;5054350;28;20472;-46
2022/08/10 05:17:03;;;;;;;8.17;6.70;;;18.60;99.10;;;;;;5054328;28;20431;-47
2022/08/10 05:19:31;;;;;;;8.80;6.57;;;18.70;98.90;;;;;;5054036;28;20575;-47
2022/08/10 05:21:58;;;;;;;8.23;5.97;;;18.80;98.70;;;;;;5054434;28;20430;-46
2022/08/10 05:24:25;;;;;;;7.13;5.97;;;18.90;98.50;;;;;;5054295;28;20452;-47
2022/08/10 05:26:51;;;;;;;12.33;6.80;;;19.10;98.50;;;;;;5054088;28;20434;-47
2022/08/10 05:29:18;;;;;;;9.67;6.70;;;19.10;98.30;;;;;;5053405;28;20490;-47
2022/08/10 05:31:44;;;;;;;9.50;6.53;;;19.10;98.10;;;;;;5054081;28;20429;-49
2022/08/10 05:34:11;;;;;;;9.43;6.10;;;19.20;97.90;;;;;;5054019;28;20970;-47
2022/08/10 05:36:41;;;;;;;12.47;6.73;;;19.20;97.80;;;;;;5054061;28;20965;-46
2022/08/10 05:39:09;;;;;;;11.07;6.37;;;19.30;97.70;;;;;;5053509;28;20441;-47
2022/08/10 05:41:36;;;;;;;7.80;6.17;;;19.50;97.60;;;;;;5054037;28;20437;-47
2022/08/10 05:44:03;;;;;;;8.40;6.20;;;19.50;97.40;;;;;;5053791;28;20468;-48
2022/08/10 05:46:30;;;;;;;10.37;6.33;;;19.60;97.30;;;;;;5053362;28;20436;-46
2022/08/10 05:48:57;;;;;;;8.17;6.10;;;19.60;97.10;;;;;;5053436;28;20635;-47
2022/08/10 05:51:25;;;;;;;13.87;5.80;;;19.60;97.00;;;;;;5053845;28;20433;-47
2022/08/10 05:53:53;;;;;;;12.30;6.53;;;19.60;97.00;;;;;;5053595;28;20434;-48
2022/08/10 05:56:19;;;;;;;8.40;5.97;;;19.90;97.30;;;;;;5052224;28;20541;-48
2022/08/10 05:58:46;;;;;;;7.90;6.83;;;19.60;97.10;;;;;;5053239;28;20883;-46
2022/08/10 06:01:18;;;;;;;6.70;6.07;;;19.70;97.20;;;;;;5053558;28;20568;-46
2022/08/10 06:03:50;;;;;;;7.67;6.17;;;19.80;97.10;;;;;;5053549;28;20935;-47
2022/08/10 06:06:20;;;;;;;8.23;6.00;;;20.20;97.10;;;;;;5053583;28;20491;-47
2022/08/10 06:08:49;;;;;;;11.97;6.60;;;20.30;97.00;;;;;;5053121;28;20436;-47
2022/08/10 06:11:19;;;;;;;14.30;6.50;;;20.20;96.80;;;;;;5053382;28;20430;-47
2022/08/10 06:16:32;;;;;;;8.13;5.90;;;20.40;96.40;;;;;;5053365;28;20437;-48
2022/08/10 06:18:59;;;;;;;8.10;6.47;;;20.70;96.50;;;;;;5052786;28;20434;-48
2022/08/10 06:21:27;;;;;;;11.20;5.60;;;20.50;96.20;;;;;;5053140;28;20435;-47
2022/08/10 06:23:54;;;;;;;8.90;5.47;;;20.60;96.10;;;;;;5053289;28;20430;-47
2022/08/10 06:26:22;;;;;;;11.53;7.00;;;20.70;95.90;;;;;;5053190;28;20431;-47
2022/08/10 06:28:55;;;;;;;6.60;5.33;;;20.70;95.50;;;;;;5052550;28;20453;-47
2022/08/10 06:31:23;;;;;;;6.60;5.50;;;21.00;95.50;;;;;;5053045;28;20427;-47
2022/08/10 06:33:51;;;;;;;12.33;5.10;;;20.90;95.10;;;;;;5052983;28;20423;-46
2022/08/10 06:36:20;;;;;;;6.97;4.80;;;21.00;95.10;;;;;;5052801;28;20439;-46
2022/08/10 06:38:49;;;;;;;5.70;4.20;;;21.00;94.80;;;;;;5052788;28;20431;-47
2022/08/10 06:41:24;;;;;;;9.30;4.70;;;21.00;94.50;;;;;;5052888;28;20486;-47
2022/08/10 06:43:59;;;;;;;8.47;4.10;;;20.90;94.30;;;;;;5052728;28;20427;-47
2022/08/10 06:46:27;;;;;;;9.07;4.47;;;21.00;94.30;;;;;;5052584;28;20786;-47
2022/08/10 06:48:57;;;;;;;10.07;5.73;;;21.00;94.20;;;;;;5051838;28;20442;-47
2022/08/10 06:51:27;;;;;;;8.17;4.70;;;21.10;94.00;;;;;;5052728;28;20747;-47
2022/08/10 06:53:56;;;;;;;8.17;4.47;;;21.10;93.90;;;;;;5052689;28;20440;-46
2022/08/10 06:56:26;;;;;;;6.07;4.47;;;20.70;93.40;;;;;;5052701;28;20533;-48
2022/08/10 06:58:55;;;;;;;12.00;5.63;;;21.10;93.40;;;;;;5051429;28;20436;-47
2022/08/10 07:01:28;;;;;;;12.60;5.17;;;21.10;93.20;;;;;;5052006;28;20902;-46
2022/08/10 07:03:58;;;;;;;5.00;4.07;;;21.10;93.30;;;;;;5052322;28;20439;-46
2022/08/10 07:06:26;;;;;;;7.50;4.33;;;21.20;93.20;;;;;;5052599;28;20469;-48
2022/08/10 07:08:54;;;;;;;7.23;4.67;;;21.20;93.00;;;;;;5052124;28;20446;-51
2022/08/10 07:11:21;;;;;;;8.87;5.50;;;21.30;92.90;;;;;;5052507;28;20435;-47
2022/08/10 07:13:51;;;;;;;7.53;4.17;;;21.50;92.80;;;;;;5052360;28;20434;-48
2022/08/10 07:16:20;;;;;;;10.87;4.00;;;21.70;92.60;;;;;;5052088;28;20462;-47
2022/08/10 07:18:48;;;;;;;9.57;4.30;;;21.30;92.10;;;;;;5051944;28;20444;-46
2022/08/10 07:21:17;;;;;;;4.60;4.20;;;21.50;92.10;;;;;;5051792;28;20498;-46
2022/08/10 07:23:46;;;;;;;6.17;3.60;;;21.50;91.80;;;;;;5051783;28;20436;-48
2022/08/10 07:26:15;;;;;;;4.90;3.90;;;21.50;91.50;;;;;;5051744;28;20515;-47
2022/08/10 07:28:42;;;;;;;7.47;3.83;;;21.60;91.30;;;;;;5051425;28;20440;-48
2022/08/10 07:31:10;;;;;;;10.03;4.37;;;21.60;91.50;;;;;;5051813;28;20858;-48
2022/08/10 07:33:39;;;;;;;10.33;4.37;;;21.80;91.00;;;;;;5051810;28;20448;-47
2022/08/10 07:36:08;;;;;;;14.77;4.50;;;21.60;90.90;;;;;;5051756;28;20441;-48
2022/08/10 07:38:36;;;;;;;6.60;4.33;;;21.60;90.80;;;;;;5051174;28;20803;-47
2022/08/10 07:41:07;;;;;;;7.13;4.20;;;21.80;90.70;;;;;;5051828;28;20490;-46
2022/08/10 07:43:37;;;;;;;5.83;4.47;;;21.90;90.50;;;;;;5051803;28;20809;-48
2022/08/10 07:46:05;;;;;;;8.23;3.63;;;21.90;90.30;;;;;;5050179;28;20450;-46
2022/08/10 07:48:40;;;;;;;4.73;3.83;;;21.90;90.20;;;;;;5051378;28;20433;-48
2022/08/10 07:51:08;;;;;;;4.70;3.70;;;21.90;90.10;;;;;;5051577;28;20448;-48
2022/08/10 07:53:41;;;;;;;6.10;3.80;;;21.90;89.60;;;;;;5050572;28;20450;-49
2022/08/10 07:56:10;;;;;;;6.90;4.37;;;22.00;89.60;;;;;;5051993;28;20433;-48
2022/08/10 07:58:45;;;;;;;4.60;3.50;;;22.00;89.20;;;;;;5051382;28;20432;-48
2022/08/10 08:01:15;;;;;;;6.50;3.90;;;21.90;88.10;;;;;;5051274;28;20476;-48
2022/08/10 08:03:44;;;;;;;7.60;3.40;;;22.10;88.00;;;;;;5051545;28;20441;-47
2022/08/10 08:06:11;;;;;;;5.83;3.33;;;21.90;87.10;;;;;;5051794;28;20437;-49
2022/08/10 08:08:40;;;;;;;12.10;3.87;;;22.00;86.70;;;;;;5051304;28;20441;-46
2022/08/10 08:11:09;;;;;;;9.10;3.47;;;22.00;86.90;;;;;;5055489;28;20953;-48
2022/08/10 08:13:37;;;;;;;5.87;3.80;;;22.20;86.70;;;;;;5056094;28;20433;-46
2022/08/10 08:16:06;;;;;;;4.60;3.57;;;21.90;85.80;;;;;;5055829;28;20467;-46
2022/08/10 08:18:35;;;;;;;6.13;4.23;;;22.10;85.00;;;;;;5055151;28;20497;-48
2022/08/10 08:21:03;;;;;;;6.40;3.23;;;22.10;84.90;;;;;;5055800;28;20488;-47
2022/08/10 08:23:31;;;;;;;4.57;3.33;;;22.10;84.90;;;;;;5055644;28;20425;-47
2022/08/10 08:25:58;;;;;;;8.63;3.40;;;21.90;83.90;;;;;;5055335;28;20456;-48
2022/08/10 08:28:26;;;;;;;6.03;2.80;;;22.10;83.00;;;;;;5055407;28;20941;-45
2022/08/10 08:30:53;;;;;;;3.40;3.10;;;22.20;83.00;;;;;;5055402;28;20509;-48
2022/08/10 08:33:21;;;;;;;7.83;2.70;;;22.10;82.10;;;;;;5055698;28;20430;-46
2022/08/10 08:35:49;;;;;;;4.50;3.20;;;22.10;80.80;;;;;;5055406;28;20461;-47
2022/08/10 08:38:17;;;;;;;6.80;3.17;;;22.40;80.40;;;;;;5055444;28;20436;-48
2022/08/10 08:40:53;;;;;;;4.60;3.00;;;22.30;79.50;;;;;;5055210;28;20481;-48
2022/08/10 08:43:33;;;;;;;3.20;2.53;;;22.40;79.10;;;;;;5055493;28;20441;-47
2022/08/10 08:46:18;;;;;;;5.70;2.40;;;22.50;79.10;;;;;;5055394;28;20492;-47
2022/08/10 08:49:22;;;;;;;6.23;3.17;;;22.30;78.60;;;;;;5054756;28;20437;-47
2022/08/10 08:51:57;;;;;;;5.07;2.37;;;22.50;78.70;;;;;;5055320;28;20438;-47
2022/08/10 08:54:38;;;;;;;3.17;1.90;;;22.50;78.90;;;;;;5055005;28;20963;-45
2022/08/10 08:57:17;;;;;;;9.60;3.63;;;22.60;76.20;;;;;;5054883;28;20797;-48
2022/08/10 08:59:56;;;;;;;4.77;2.93;;;22.60;76.60;;;;;;5054383;28;20944;-48
2022/08/10 09:02:42;;;;;;;4.53;3.00;;;22.60;77.10;;;;;;5055235;28;20426;-46
2022/08/10 09:05:31;;;;;;;7.97;2.73;;;22.70;75.90;;;;;;5055014;28;20453;-47
2022/08/10 09:08:24;;;;;;;4.80;2.53;;;22.70;73.80;;;;;;5054696;28;20525;-46
2022/08/10 09:10:59;;;;;;;3.70;2.53;;;22.70;73.50;;;;;;5054907;28;20448;-47
2022/08/10 09:13:31;;;;;;;6.13;2.10;;;22.80;72.20;;;;;;5054524;28;20437;-47
2022/08/10 09:16:15;;;;;;;4.97;2.50;;;22.80;70.80;;;;;;5053125;28;20481;-46
2022/08/10 09:18:47;;;;;;;2.70;2.00;;;22.90;69.90;;;;;;5054411;28;20419;-48
2022/08/10 09:21:21;;;;;;;3.47;2.20;;;22.90;69.50;;;;;;5053961;28;20807;-47
2022/08/10 09:23:57;;;;;;;3.27;2.23;;;23.00;68.70;;;;;;5054288;28;20435;-48
2022/08/10 09:26:32;;;;;;;2.60;1.70;;;23.00;67.50;;;;;;5054463;28;20438;-46
2022/08/10 09:29:02;;;;;;;2.90;1.80;;;23.00;64.00;;;;;;5054014;28;20431;-48
2022/08/10 09:31:40;;;;;;;2.43;1.40;;;23.10;64.60;;;;;;5054302;28;20852;-48
2022/08/10 09:34:15;;;;;;;1.50;1.27;;;23.20;62.20;;;;;;5054146;28;20462;-47
2022/08/10 09:36:55;;;;;;;3.90;1.67;;;23.20;59.70;;;;;;5054097;28;20445;-45
2022/08/10 09:39:26;;;;;;;3.30;1.50;;;23.20;60.10;;;;;;5053584;28;20969;-46
2022/08/10 09:42:05;;;;;;;2.60;1.53;;;23.30;59.70;;;;;;5052899;28;20479;-47
2022/08/10 09:44:44;;;;;;;4.17;1.47;;;23.30;58.30;;;;;;5054063;28;20447;-47
2022/08/10 09:47:26;;;;;;;3.07;1.40;;;23.30;58.00;;;;;;5054047;28;20431;-48
2022/08/10 09:50:08;;;;;;;1.97;1.73;;;23.40;57.90;;;;;;5053754;28;20932;-48
2022/08/10 09:52:48;;;;;;;7.00;1.70;;;23.40;58.60;;;;;;5053753;28;20836;-46
2022/08/10 09:55:23;;;;;;;2.90;1.70;;;23.40;58.70;;;;;;5053679;28;20454;-47
2022/08/10 09:58:10;;;;;;;5.60;2.10;;;23.50;58.80;;;;;;5052301;28;20442;-48
2022/08/10 10:00:44;;;;;;;3.23;2.00;;;23.50;59.10;;;;;;5053164;28;20466;-46
2022/08/10 10:03:19;;;;;;;2.40;1.80;;;23.50;59.00;;;;;;5053775;28;20795;-48
2022/08/10 10:05:53;;;;;;;2.30;1.50;;;23.60;58.90;;;;;;5053551;28;20467;-47
2022/08/10 10:08:28;;;;;;;3.33;1.90;;;23.60;58.80;;;;;;5053486;28;20448;-49
2022/08/10 10:11:02;;;;;;;2.50;1.30;;;23.50;58.30;;;;;;5053412;28;20793;-47
2022/08/10 10:13:38;;;;;;;2.60;1.50;;;23.60;57.80;;;;;;5053719;28;20804;-48
2022/08/10 10:16:19;;;;;;;5.57;1.20;;;23.70;57.30;;;;;;5094807;22;20499;-48
2022/08/10 10:18:54;;;;;;;2.77;1.70;;;23.70;57.00;;;;;;5072343;28;20958;-49
2022/08/10 10:21:26;;;;;;;2.90;1.80;;;23.70;57.20;;;;;;5072550;28;20486;-49
2022/08/10 10:24:04;;;;;;;7.83;2.00;;;23.80;57.40;;;;;;5073071;28;20427;-49
2022/08/10 10:26:41;;;;;;;3.03;1.70;;;23.80;57.60;;;;;;5073185;28;20449;-49
2022/08/10 10:29:15;;;;;;;4.03;1.50;;;23.90;58.00;;;;;;5072656;28;20458;-48
2022/08/10 10:31:56;;;;;;;4.77;2.50;;;23.90;58.10;;;;;;5072325;28;20781;-48
2022/08/10 10:34:33;;;;;;;2.90;1.70;;;23.90;57.60;;;;;;5071363;28;20450;-49
2022/08/10 10:37:01;;;;;;;4.27;1.57;;;23.90;56.90;;;;;;5072583;28;20434;-49
2022/08/10 10:39:28;;;;;;;7.60;1.93;;;24.00;57.10;;;;;;5072566;28;20434;-48
2022/08/10 10:42:06;;;;;;;2.50;1.50;;;23.90;56.90;;;;;;5072658;28;20465;-49
2022/08/10 10:44:42;;;;;;;3.20;1.47;;;24.10;56.50;;;;;;5072806;28;20455;-48
2022/08/10 10:47:19;;;;;;;2.30;1.60;;;24.10;56.00;;;;;;5073249;28;20439;-49
2022/08/10 10:49:52;;;;;;;3.77;1.60;;;24.10;55.30;;;;;;5071702;28;20441;-48
2022/08/10 10:52:31;;;;;;;4.03;2.60;;;24.10;54.60;;;;;;5071648;28;20442;-49
2022/08/10 10:55:08;;;;;;;3.87;2.10;;;24.20;54.50;;;;;;5072494;28;20777;-49
2022/08/10 10:57:45;;;;;;;2.40;1.73;;;24.30;54.40;;;;;;5071726;28;20427;-47
2022/08/10 11:00:16;;;;;;;2.50;1.40;;;24.30;54.20;;;;;;5071781;28;20435;-48
2022/08/10 11:03:11;;;;;;;1.97;1.50;;;24.30;53.70;;;;;;5071998;28;20494;-48
2022/08/10 11:05:46;;;;;;;3.57;2.27;;;24.40;53.20;;;;;;5070218;28;20518;-48
2022/08/10 11:08:19;;;;;;;3.17;2.50;;;24.40;53.70;;;;;;5072292;28;20744;-49
2022/08/10 11:10:51;;;;;;;2.97;1.80;;;24.40;53.80;;;;;;5071629;28;20962;-48
2022/08/10 11:13:26;;;;;;;2.87;1.67;;;24.40;54.10;;;;;;5071720;28;20444;-48
2022/08/10 11:16:01;;;;;;;4.23;1.67;;;24.40;53.80;;;;;;5071738;28;21001;-48
2022/08/10 11:18:38;;;;;;;5.13;1.60;;;24.50;53.60;;;;;;5071345;28;20452;-49
2022/08/10 11:21:15;;;;;;;2.90;1.80;;;24.50;53.70;;;;;;5071457;28;20484;-49
2022/08/10 11:24:00;;;;;;;2.20;1.80;;;24.50;53.30;;;;;;5071848;28;20775;-49
2022/08/10 11:26:34;;;;;;;4.47;1.50;;;24.60;53.80;;;;;;5071756;28;20535;-48
2022/08/10 11:29:07;;;;;;;2.17;1.50;;;24.50;52.90;;;;;;5071481;28;20795;-49
2022/08/10 11:31:39;;;;;;;3.13;1.40;;;24.40;52.30;;;;;;5071283;28;20837;-48
2022/08/10 11:34:12;;;;;;;4.17;1.73;;;24.60;51.90;;;;;;5071659;28;20769;-49
2022/08/10 11:36:46;;;;;;;4.63;2.03;;;24.70;51.00;;;;;;5071267;28;20476;-49
2022/08/10 11:39:19;;;;;;;3.10;1.50;;;24.70;50.70;;;;;;5071091;28;20435;-48
2022/08/10 11:41:53;;;;;;;3.27;1.73;;;24.70;50.80;;;;;;5071310;28;20487;-49
2022/08/10 11:44:28;;;;;;;3.27;1.33;;;24.70;50.90;;;;;;5071020;28;20554;-49
2022/08/10 11:47:02;;;;;;;3.70;2.43;;;24.70;51.10;;;;;;5071299;28;20502;-49
2022/08/10 11:49:35;;;;;;;3.00;1.57;;;24.70;51.50;;;;;;5071077;28;20455;-48
2022/08/10 11:52:09;;;;;;;4.77;1.80;;;24.80;51.40;;;;;;5071494;28;20426;-47
2022/08/10 11:54:41;;;;;;;2.20;1.60;;;24.80;51.70;;;;;;5071984;28;20448;-49
2022/08/10 11:57:10;;;;;;;4.43;2.00;;;24.80;51.90;;;;;;5071825;28;20443;-49
2022/08/10 11:59:56;;;;;;;2.00;1.70;;;24.90;52.00;;;;;;5071121;28;20425;-49
2022/08/10 12:02:27;;;;;;;5.40;2.10;;;24.90;52.00;;;;;;5071601;28;20485;-49
2022/08/10 12:04:58;;;;;;;2.30;1.50;;;24.90;51.50;;;;;;5071475;28;20547;-48
2022/08/10 12:07:28;;;;;;;5.03;1.97;;;24.90;51.60;;;;;;5071240;28;20456;-49
2022/08/10 12:09:55;;;;;;;9.37;1.70;;;25.00;51.30;;;;;;5070883;28;20495;-49
2022/08/10 12:12:24;;;;;;;3.23;1.47;;;24.90;51.30;;;;;;5071139;28;21010;-48
2022/08/10 12:14:59;;;;;;;3.07;1.80;;;25.00;51.30;;;;;;5071140;28;20479;-48
2022/08/10 12:17:31;;;;;;;5.53;3.10;;;25.00;51.10;;;;;;5070924;28;20444;-48
2022/08/10 12:20:04;;;;;;;2.70;1.70;;;25.00;51.20;;;;;;5070942;28;20441;-49
2022/08/10 12:22:35;;;;;;;3.37;1.60;;;25.00;51.00;;;;;;5071307;28;20484;-49
2022/08/10 12:25:06;;;;;;;2.53;1.90;;;25.00;51.00;;;;;;5071124;28;20485;-49
2022/08/10 12:27:39;;;;;;;3.33;1.90;;;25.10;51.10;;;;;;5070827;28;20441;-49
2022/08/10 12:30:08;;;;;;;4.23;1.53;;;25.10;50.80;;;;;;5070571;28;20433;-48
2022/08/10 12:32:43;;;;;;;3.53;1.80;;;25.20;50.60;;;;;;5071064;28;20738;-49
2022/08/10 12:35:19;;;;;;;5.63;2.03;;;25.20;50.10;;;;;;5070672;28;20458;-49
2022/08/10 12:37:55;;;;;;;5.40;2.50;;;24.80;49.70;;;;;;5071215;28;20931;-49
2022/08/10 12:40:25;;;;;;;3.53;1.57;;;25.10;49.90;;;;;;5071015;28;20788;-49
2022/08/10 12:42:56;;;;;;;3.57;1.67;;;25.30;49.80;;;;;;5070829;28;20568;-49
2022/08/10 12:45:31;;;;;;;3.10;2.13;;;25.30;49.70;;;;;;5070723;28;20454;-49
2022/08/10 12:48:08;;;;;;;2.27;1.70;;;25.30;49.80;;;;;;5071420;28;20441;-49
2022/08/10 12:50:41;;;;;;;6.23;2.03;;;25.30;49.80;;;;;;5070544;28;20436;-48
2022/08/10 12:53:20;;;;;;;7.07;2.90;;;25.30;49.40;;;;;;5070458;28;20437;-50
2022/08/10 12:55:49;;;;;;;4.30;1.60;;;25.30;49.20;;;;;;5070358;28;20472;-49
2022/08/10 12:58:18;;;;;;;3.33;2.20;;;25.20;49.00;;;;;;5073145;28;20452;-50
2022/08/10 13:00:45;;;;;;;2.50;1.90;;;25.40;49.10;;;;;;5074127;28;20490;-49
2022/08/10 13:03:15;;;;;;;3.57;1.60;;;25.50;49.10;;;;;;5074305;28;21069;-48
2022/08/10 13:05:43;;;;;;;2.43;2.20;;;25.50;48.90;;;;;;5074187;28;20545;-49
2022/08/10 13:10:59;;;;;;;5.27;1.80;;;25.60;48.50;;;;;;5074629;28;20421;-49